Time;durP1;ratioP1;P1;durP2;ratioP2;P2;SDS_P1;SDS_P2;PMS_P1;PMS_P2;Temp;Humidity;BMP_temperature;BMP_pressure;BME280_temperature;BME280_humidity;BME280_pressure;Samples;Min_cycle;Max_cycle;Signal;HPM_P1;HPM_P2
2023/06/09 00:00:22;;;;;;;8.87;6.57;;;;;;;;;;5073949;28;20266;-76
2023/06/09 00:02:50;;;;;;;7.73;7.03;;;;;;;;;;5092675;28;20597;-77
2023/06/09 00:05:23;;;;;;;6.93;6.33;;;;;;;;;;5092948;28;20228;-75
2023/06/09 00:07:53;;;;;;;7.00;6.40;;;;;;;;;;5086657;28;20212;-75
2023/06/09 00:10:20;;;;;;;7.57;6.70;;;;;;;;;;5083045;28;21055;-74
2023/06/09 00:12:48;;;;;;;7.20;6.50;;;;;;;;;;5091236;28;20211;-74
2023/06/09 00:15:15;;;;;;;7.27;6.57;;;;;;;;;;5078119;28;20245;-76
2023/06/09 00:17:43;;;;;;;7.23;6.63;;;;;;;;;;5083387;28;20288;-75
2023/06/09 00:20:12;;;;;;;8.27;6.67;;;;;;;;;;5087754;28;20200;-76
2023/06/09 00:22:43;;;;;;;7.90;7.20;;;;;;;;;;5090094;28;20612;-76
2023/06/09 00:25:11;;;;;;;7.67;6.87;;;;;;;;;;5093761;28;20228;-76
2023/06/09 00:27:43;;;;;;;7.50;6.77;;;;;;;;;;5087385;28;20207;-75
2023/06/09 00:30:11;;;;;;;7.80;7.03;;;;;;;;;;5063223;28;20626;-75
2023/06/09 00:32:55;;;;;;;8.17;7.47;;;;;;;;;;5088776;28;20908;-75
2023/06/09 00:35:22;;;;;;;7.70;7.00;;;;;;;;;;5091897;28;20462;-75
2023/06/09 00:37:50;;;;;;;7.97;7.27;;;;;;;;;;5093452;28;20209;-76
2023/06/09 00:40:17;;;;;;;8.00;7.30;;;;;;;;;;5095894;28;20196;-76
2023/06/09 00:42:44;;;;;;;7.80;7.10;;;;;;;;;;5100039;28;20307;-76
2023/06/09 00:45:11;;;;;;;7.60;6.90;;;;;;;;;;5087255;28;20268;-76
2023/06/09 00:47:39;;;;;;;8.00;6.77;;;;;;;;;;5087573;28;20209;-75
2023/06/09 00:50:06;;;;;;;7.53;6.83;;;;;;;;;;5095629;28;20769;-75
2023/06/09 00:52:34;;;;;;;8.30;7.50;;;;;;;;;;5094081;28;20204;-75
2023/06/09 00:55:02;;;;;;;9.13;7.67;;;;;;;;;;5091377;28;20314;-75
2023/06/09 00:57:33;;;;;;;7.30;6.60;;;;;;;;;;5079016;28;20200;-74
2023/06/09 01:00:05;;;;;;;8.10;7.27;;;;;;;;;;5097857;28;20231;-75
2023/06/09 01:02:32;;;;;;;7.27;6.60;;;;;;;;;;5098606;28;20192;-75
2023/06/09 01:05:00;;;;;;;7.53;6.83;;;;;;;;;;5101229;28;20220;-75
2023/06/09 01:07:41;;;;;;;7.80;7.10;;;;;;;;;;5097340;28;20216;-75
2023/06/09 01:10:28;;;;;;;8.30;7.00;;;;;;;;;;5079555;28;20223;-76
2023/06/09 01:13:04;;;;;;;8.00;7.30;;;;;;;;;;5099686;28;20208;-75
2023/06/09 01:15:38;;;;;;;7.40;6.80;;;;;;;;;;5096113;28;20629;-75
2023/06/09 01:18:12;;;;;;;8.10;7.30;;;;;;;;;;5076702;28;20197;-74
2023/06/09 01:20:45;;;;;;;7.20;6.60;;;;;;;;;;5075830;28;20816;-75
2023/06/09 01:23:33;;;;;;;7.60;6.90;;;;;;;;;;5092043;28;20212;-75
2023/06/09 01:26:01;;;;;;;8.23;7.23;;;;;;;;;;5072528;28;20223;-74
2023/06/09 01:28:29;;;;;;;15.53;9.03;;;;;;;;;;5096674;28;20200;-75
2023/06/09 01:30:57;;;;;;;8.80;7.53;;;;;;;;;;5090945;28;20567;-74
2023/06/09 01:33:25;;;;;;;7.80;7.00;;;;;;;;;;5101326;28;20331;-75
2023/06/09 01:35:53;;;;;;;8.70;7.80;;;;;;;;;;5092281;28;20225;-75
2023/06/09 01:38:22;;;;;;;8.20;7.30;;;;;;;;;;5094295;28;20678;-75
2023/06/09 01:40:49;;;;;;;8.97;7.67;;;;;;;;;;5080766;28;20646;-75
2023/06/09 01:43:17;;;;;;;8.10;7.40;;;;;;;;;;5093661;28;20200;-75
2023/06/09 01:45:44;;;;;;;8.20;7.40;;;;;;;;;;5075256;28;20228;-75
2023/06/09 01:48:27;;;;;;;8.23;7.40;;;;;;;;;;5092547;28;20208;-75
2023/06/09 01:50:57;;;;;;;8.70;7.87;;;;;;;;;;5088381;28;20219;-76
2023/06/09 01:53:27;;;;;;;8.53;7.83;;;;;;;;;;5070646;27;20821;-74
2023/06/09 01:55:57;;;;;;;8.17;7.37;;;;;;;;;;5094691;28;20293;-74
2023/06/09 01:58:27;;;;;;;8.33;7.63;;;;;;;;;;5074635;28;20204;-75
2023/06/09 02:00:57;;;;;;;7.90;7.20;;;;;;;;;;5101810;28;20195;-70
2023/06/09 02:03:26;;;;;;;8.47;7.60;;;;;;;;;;5101610;28;20619;-73
2023/06/09 02:05:54;;;;;;;8.17;7.30;;;;;;;;;;5105383;28;20224;-72
2023/06/09 02:08:22;;;;;;;8.10;7.37;;;;;;;;;;5091601;28;20205;-74
2023/06/09 02:10:49;;;;;;;9.03;8.13;;;;;;;;;;5077457;28;20695;-74
2023/06/09 02:13:21;;;;;;;8.43;7.63;;;;;;;;;;5104728;28;20211;-73
2023/06/09 02:15:49;;;;;;;17.37;12.30;;;;;;;;;;5096392;28;20228;-73
2023/06/09 02:18:21;;;;;;;7.93;7.13;;;;;;;;;;5098919;28;20287;-73
2023/06/09 02:20:49;;;;;;;7.90;7.10;;;;;;;;;;5105226;28;20207;-74
2023/06/09 02:23:18;;;;;;;17.03;10.90;;;;;;;;;;5099693;28;20209;-73
2023/06/09 02:25:46;;;;;;;7.60;6.53;;;;;;;;;;5087696;28;20255;-74
2023/06/09 02:28:13;;;;;;;8.00;7.10;;;;;;;;;;5104180;28;20215;-73
2023/06/09 02:30:41;;;;;;;7.00;6.40;;;;;;;;;;5100523;28;20224;-73
2023/06/09 02:33:08;;;;;;;7.00;6.40;;;;;;;;;;5104105;28;20208;-73
2023/06/09 02:35:35;;;;;;;8.00;7.20;;;;;;;;;;5098083;28;20220;-73
2023/06/09 02:38:06;;;;;;;11.97;9.43;;;;;;;;;;5088142;28;20205;-73
2023/06/09 02:40:33;;;;;;;9.97;8.80;;;;;;;;;;5086893;28;20708;-72
2023/06/09 02:43:01;;;;;;;9.73;8.80;;;;;;;;;;5090002;28;20200;-72
2023/06/09 02:45:29;;;;;;;9.20;8.30;;;;;;;;;;5089235;28;20278;-72
2023/06/09 02:47:56;;;;;;;11.83;9.80;;;;;;;;;;5094945;28;20275;-72
2023/06/09 02:50:24;;;;;;;11.67;8.90;;;;;;;;;;5083621;28;20201;-72
2023/06/09 02:52:51;;;;;;;8.97;8.07;;;;;;;;;;5089717;28;20201;-71
2023/06/09 02:55:20;;;;;;;9.40;8.47;;;;;;;;;;5090771;28;20301;-73
2023/06/09 02:57:47;;;;;;;8.80;8.00;;;;;;;;;;5088776;28;20232;-73
2023/06/09 03:00:15;;;;;;;8.73;7.93;;;;;;;;;;5089374;28;20236;-72
2023/06/09 03:02:43;;;;;;;11.17;9.23;;;;;;;;;;5088006;28;20238;-74
2023/06/09 03:05:10;;;;;;;9.97;9.00;;;;;;;;;;5071405;28;20689;-72
2023/06/09 03:07:38;;;;;;;12.57;10.97;;;;;;;;;;5095134;28;20303;-73
2023/06/09 03:10:05;;;;;;;10.83;9.73;;;;;;;;;;5103140;28;20200;-73
2023/06/09 03:12:33;;;;;;;10.87;9.77;;;;;;;;;;5097214;28;20200;-72
2023/06/09 03:15:00;;;;;;;10.07;9.07;;;;;;;;;;5091718;28;20236;-72
2023/06/09 03:17:27;;;;;;;12.70;10.67;;;;;;;;;;5099742;28;20290;-73
2023/06/09 03:19:56;;;;;;;8.73;7.90;;;;;;;;;;5109407;28;20231;-72
2023/06/09 03:22:23;;;;;;;7.63;6.93;;;;;;;;;;5086607;28;20209;-72
2023/06/09 03:24:52;;;;;;;7.70;7.00;;;;;;;;;;5097520;28;20220;-72
2023/06/09 03:27:19;;;;;;;7.07;6.47;;;;;;;;;;5095460;28;20250;-72
2023/06/09 03:29:46;;;;;;;7.50;6.80;;;;;;;;;;5090135;28;20200;-72
2023/06/09 03:32:13;;;;;;;8.07;7.30;;;;;;;;;;5088480;28;20205;-72
2023/06/09 03:34:40;;;;;;;8.57;7.67;;;;;;;;;;5094919;28;20228;-71
2023/06/09 03:37:10;;;;;;;8.40;7.60;;;;;;;;;;5088412;28;20233;-71
2023/06/09 03:39:37;;;;;;;8.20;7.40;;;;;;;;;;5096651;28;20611;-72
2023/06/09 03:42:05;;;;;;;7.63;6.93;;;;;;;;;;5097250;28;20193;-72
2023/06/09 03:44:32;;;;;;;7.40;6.73;;;;;;;;;;5099220;28;20625;-72
2023/06/09 03:46:59;;;;;;;8.37;7.50;;;;;;;;;;5101510;28;20204;-73
2023/06/09 03:49:27;;;;;;;9.37;8.17;;;;;;;;;;5097974;28;20658;-72
2023/06/09 03:51:54;;;;;;;8.93;8.03;;;;;;;;;;5098101;28;20215;-72
2023/06/09 03:54:21;;;;;;;8.67;7.87;;;;;;;;;;5098411;28;20211;-72
2023/06/09 03:56:49;;;;;;;8.37;7.57;;;;;;;;;;5097765;28;20254;-71
2023/06/09 03:59:16;;;;;;;9.20;8.33;;;;;;;;;;5081135;28;20658;-72
2023/06/09 04:01:43;;;;;;;9.07;8.17;;;;;;;;;;5100893;28;20200;-71
2023/06/09 04:04:11;;;;;;;8.90;8.07;;;;;;;;;;5087332;28;20242;-71
2023/06/09 04:06:45;;;;;;;9.00;8.13;;;;;;;;;;5101340;28;20262;-72
2023/06/09 04:09:15;;;;;;;8.97;8.03;;;;;;;;;;5102579;28;20283;-72
2023/06/09 04:11:42;;;;;;;9.40;8.60;;;;;;;;;;5103096;28;20673;-72
2023/06/09 04:14:10;;;;;;;9.83;8.87;;;;;;;;;;5094728;28;20211;-72
2023/06/09 04:16:37;;;;;;;9.50;8.70;;;;;;;;;;5094487;28;20263;-73
2023/06/09 04:19:04;;;;;;;9.40;8.60;;;;;;;;;;5079855;28;20287;-72
2023/06/09 04:21:33;;;;;;;10.03;8.77;;;;;;;;;;5097736;28;20205;-72
2023/06/09 04:24:01;;;;;;;8.90;8.10;;;;;;;;;;5100637;28;20209;-72
2023/06/09 04:26:29;;;;;;;11.80;10.37;;;;;;;;;;5090086;28;20270;-73
2023/06/09 04:28:56;;;;;;;10.10;9.10;;;;;;;;;;5095972;28;20216;-72
2023/06/09 04:31:24;;;;;;;9.23;7.83;;;;;;;;;;5099799;28;20213;-72
2023/06/09 04:33:52;;;;;;;9.13;8.23;;;;;;;;;;5106216;28;20196;-73
2023/06/09 04:36:20;;;;;;;9.47;8.57;;;;;;;;;;5098694;28;20239;-73
2023/06/09 04:38:48;;;;;;;10.33;8.83;;;;;;;;;;5100552;28;20211;-73
2023/06/09 04:41:17;;;;;;;10.03;9.03;;;;;;;;;;5091573;28;20209;-74
2023/06/09 04:43:44;;;;;;;10.53;9.53;;;;;;;;;;5079198;28;20209;-72
2023/06/09 04:46:13;;;;;;;9.47;8.67;;;;;;;;;;5094798;28;20220;-72
2023/06/09 04:48:41;;;;;;;9.30;8.23;;;;;;;;;;5099616;28;20642;-72
2023/06/09 04:51:10;;;;;;;13.43;12.10;;;;;;;;;;5099706;28;20283;-72
2023/06/09 04:53:37;;;;;;;13.57;12.47;;;;;;;;;;5084384;28;20279;-72
2023/06/09 04:56:06;;;;;;;11.33;10.33;;;;;;;;;;5082521;28;20228;-73
2023/06/09 04:58:38;;;;;;;9.87;8.97;;;;;;;;;;5074098;28;20198;-78
2023/06/09 05:01:06;;;;;;;9.23;8.43;;;;;;;;;;5077534;28;20205;-75
2023/06/09 05:03:34;;;;;;;8.60;7.90;;;;;;;;;;5061421;28;20212;-77
2023/06/09 05:06:01;;;;;;;9.10;8.30;;;;;;;;;;5095332;28;20220;-77
2023/06/09 05:08:28;;;;;;;9.60;8.60;;;;;;;;;;5076742;28;21996;-77
2023/06/09 05:11:00;;;;;;;9.70;8.80;;;;;;;;;;5075266;28;20977;-77
2023/06/09 05:13:27;;;;;;;10.50;8.43;;;;;;;;;;5092248;28;20235;-75
2023/06/09 05:15:54;;;;;;;9.13;8.23;;;;;;;;;;5089746;28;20220;-76
2023/06/09 05:18:22;;;;;;;9.23;8.27;;;;;;;;;;5089926;28;20685;-76
2023/06/09 05:20:50;;;;;;;9.30;8.40;;;;;;;;;;5086751;28;20201;-76
2023/06/09 05:23:17;;;;;;;7.55;6.75;;;;;;;;;;5084968;28;20211;-77
2023/06/09 05:25:44;;;;;;;5.90;5.30;;;;;;;;;;5085183;28;20758;-76
2023/06/09 05:28:12;;;;;;;5.53;5.13;;;;;;;;;;5079813;28;20190;-75
2023/06/09 05:30:39;;;;;;;5.30;4.60;;;;;;;;;;5084055;28;20218;-75
2023/06/09 05:33:07;;;;;;;4.93;4.25;;;;;;;;;;5086115;28;20212;-75
2023/06/09 05:35:34;;;;;;;5.88;4.90;;;;;;;;;;5090512;28;20276;-75
2023/06/09 05:38:02;;;;;;;4.93;4.53;;;;;;;;;;5067603;28;20259;-75
2023/06/09 05:40:31;;;;;;;4.93;4.43;;;;;;;;;;5072571;28;20200;-76
2023/06/09 05:42:58;;;;;;;4.70;4.38;;;;;;;;;;5094119;28;20200;-76
2023/06/09 05:45:26;;;;;;;4.65;4.03;;;;;;;;;;5068568;28;20220;-76
2023/06/09 05:47:53;;;;;;;4.05;3.75;;;;;;;;;;5080219;28;20197;-73
2023/06/09 05:50:20;;;;;;;4.40;4.07;;;;;;;;;;5084677;28;20227;-74
2023/06/09 05:52:48;;;;;;;4.47;4.07;;;;;;;;;;5089784;28;20542;-73
2023/06/09 05:55:19;;;;;;;4.63;4.27;;;;;;;;;;5097413;28;20227;-74
2023/06/09 05:57:48;;;;;;;4.35;3.95;;;;;;;;;;5097346;28;20216;-74
2023/06/09 06:00:16;;;;;;;3.65;3.42;;;;;;;;;;5094151;28;20343;-73
2023/06/09 06:02:44;;;;;;;4.18;3.78;;;;;;;;;;5089780;28;20204;-73
2023/06/09 06:05:14;;;;;;;4.28;3.88;;;;;;;;;;5085441;28;21983;-75
2023/06/09 06:07:41;;;;;;;3.97;3.67;;;;;;;;;;5091770;28;20286;-75
2023/06/09 06:10:09;;;;;;;4.10;3.80;;;;;;;;;;5074898;27;20208;-74
2023/06/09 06:12:38;;;;;;;3.95;3.63;;;;;;;;;;5068283;28;20941;-73
2023/06/09 06:15:05;;;;;;;5.78;3.90;;;;;;;;;;5093930;28;20829;-74
2023/06/09 06:17:33;;;;;;;4.10;3.80;;;;;;;;;;5078957;28;20280;-73
2023/06/09 06:20:00;;;;;;;4.18;3.83;;;;;;;;;;5076306;28;20118;-75
2023/06/09 06:22:27;;;;;;;3.90;3.60;;;;;;;;;;5086558;28;20520;-74
2023/06/09 06:24:55;;;;;;;3.80;3.50;;;;;;;;;;5070835;28;20234;-74
2023/06/09 06:27:22;;;;;;;4.22;3.85;;;;;;;;;;5087422;28;20263;-74
2023/06/09 06:29:49;;;;;;;3.97;3.67;;;;;;;;;;5077665;28;20232;-74
2023/06/09 06:32:16;;;;;;;4.38;3.95;;;;;;;;;;5089163;28;20204;-74
2023/06/09 06:34:44;;;;;;;4.18;3.75;;;;;;;;;;5092787;28;20604;-74
2023/06/09 06:37:12;;;;;;;3.70;3.40;;;;;;;;;;5094501;28;20228;-74
2023/06/09 06:39:39;;;;;;;4.10;3.70;;;;;;;;;;5086027;28;20286;-74
2023/06/09 06:42:06;;;;;;;3.67;3.33;;;;;;;;;;5086017;28;20200;-74
2023/06/09 06:44:34;;;;;;;4.68;3.55;;;;;;;;;;5090166;28;20327;-74
2023/06/09 06:47:01;;;;;;;4.70;3.45;;;;;;;;;;5067557;28;20208;-75
2023/06/09 06:49:32;;;;;;;4.85;4.32;;;;;;;;;;5082698;28;20204;-74
2023/06/09 06:52:10;;;;;;;5.47;4.07;;;;;;;;;;5080053;28;20204;-73
2023/06/09 06:54:38;;;;;;;4.13;3.72;;;;;;;;;;5077549;28;20228;-74
2023/06/09 06:57:05;;;;;;;4.32;3.92;;;;;;;;;;5091794;28;20232;-74
2023/06/09 06:59:32;;;;;;;4.13;3.83;;;;;;;;;;5082586;28;20798;-73
2023/06/09 07:02:00;;;;;;;4.55;3.83;;;;;;;;;;5050336;28;20278;-73
2023/06/09 07:04:27;;;;;;;4.32;3.92;;;;;;;;;;5075814;27;20208;-74
2023/06/09 07:06:55;;;;;;;3.78;3.47;;;;;;;;;;5073165;28;20200;-74
2023/06/09 07:09:24;;;;;;;3.70;3.40;;;;;;;;;;5067101;28;20543;-73
2023/06/09 07:11:51;;;;;;;4.72;4.20;;;;;;;;;;5077915;28;20482;-73
2023/06/09 07:14:18;;;;;;;3.60;3.30;;;;;;;;;;5091687;28;20773;-74
2023/06/09 07:16:46;;;;;;;4.38;3.50;;;;;;;;;;5074405;28;20657;-72
2023/06/09 07:19:13;;;;;;;5.85;3.67;;;;;;;;;;5054388;28;20230;-72
2023/06/09 07:21:40;;;;;;;4.00;3.70;;;;;;;;;;5056836;28;20479;-72
2023/06/09 07:24:07;;;;;;;5.18;3.60;;;;;;;;;;5088872;28;20314;-73
2023/06/09 07:26:35;;;;;;;5.45;3.30;;;;;;;;;;5083338;28;20200;-75
2023/06/09 07:29:04;;;;;;;4.15;3.85;;;;;;;;;;5084959;28;20237;-73
2023/06/09 07:31:36;;;;;;;3.50;3.28;;;;;;;;;;5085914;28;20215;-73
2023/06/09 07:34:03;;;;;;;3.50;3.20;;;;;;;;;;5085578;28;20201;-73
2023/06/09 07:36:35;;;;;;;4.15;3.85;;;;;;;;;;5086364;28;20208;-72
2023/06/09 07:39:03;;;;;;;3.97;3.63;;;;;;;;;;5085985;28;20219;-74
2023/06/09 07:41:31;;;;;;;3.70;3.40;;;;;;;;;;5065525;28;20658;-74
2023/06/09 07:43:59;;;;;;;3.67;3.38;;;;;;;;;;5080568;28;20808;-72
2023/06/09 07:46:27;;;;;;;3.40;3.20;;;;;;;;;;5089971;28;20281;-74
2023/06/09 07:48:54;;;;;;;3.70;3.40;;;;;;;;;;5090035;28;20208;-75
2023/06/09 07:51:21;;;;;;;4.07;3.50;;;;;;;;;;5086800;28;20215;-73
2023/06/09 07:53:49;;;;;;;3.78;3.47;;;;;;;;;;5086918;28;20216;-75
2023/06/09 07:56:16;;;;;;;3.53;3.25;;;;;;;;;;5092124;28;20254;-75
2023/06/09 07:58:44;;;;;;;3.75;3.20;;;;;;;;;;5078335;28;20300;-75
2023/06/09 08:01:11;;;;;;;4.93;3.08;;;;;;;;;;5095867;28;20196;-74
2023/06/09 08:03:38;;;;;;;3.72;3.42;;;;;;;;;;5070792;28;20212;-75
2023/06/09 08:06:07;;;;;;;3.40;3.20;;;;;;;;;;5093370;28;21133;-72
2023/06/09 08:08:35;;;;;;;3.78;3.47;;;;;;;;;;5088496;28;20289;-75
2023/06/09 08:11:02;;;;;;;3.67;3.38;;;;;;;;;;5091855;28;20214;-75
2023/06/09 08:13:30;;;;;;;3.92;3.50;;;;;;;;;;5085913;28;20200;-75
2023/06/09 08:15:57;;;;;;;3.88;3.47;;;;;;;;;;5083500;28;20277;-75
2023/06/09 08:18:25;;;;;;;3.67;3.38;;;;;;;;;;5061159;28;20273;-75
2023/06/09 08:20:52;;;;;;;3.88;3.55;;;;;;;;;;5086812;28;20200;-75
2023/06/09 08:23:20;;;;;;;4.13;3.50;;;;;;;;;;5091226;28;20213;-75
2023/06/09 08:25:48;;;;;;;3.38;3.10;;;;;;;;;;5085592;28;20307;-75
2023/06/09 08:28:16;;;;;;;3.85;3.40;;;;;;;;;;5094312;28;20287;-75
2023/06/09 08:30:44;;;;;;;3.70;3.40;;;;;;;;;;5070943;28;20284;-74
2023/06/09 08:33:12;;;;;;;3.63;3.33;;;;;;;;;;5090456;28;20287;-75
2023/06/09 08:35:40;;;;;;;3.75;3.45;;;;;;;;;;5087650;28;20228;-74
2023/06/09 08:38:07;;;;;;;3.72;3.42;;;;;;;;;;5073924;28;20231;-75
2023/06/09 08:40:35;;;;;;;3.67;3.38;;;;;;;;;;5086510;28;20258;-75
2023/06/09 08:43:07;;;;;;;3.85;3.55;;;;;;;;;;5087983;28;20255;-73
2023/06/09 08:45:35;;;;;;;3.70;3.40;;;;;;;;;;5081190;28;20225;-76
2023/06/09 08:48:03;;;;;;;3.95;3.55;;;;;;;;;;5081162;28;20215;-74
2023/06/09 08:50:32;;;;;;;3.53;3.22;;;;;;;;;;5089761;28;20291;-75
2023/06/09 08:53:00;;;;;;;4.50;3.60;;;;;;;;;;5080191;28;20208;-74
2023/06/09 08:55:28;;;;;;;3.55;3.22;;;;;;;;;;5084350;28;20232;-75
2023/06/09 08:57:55;;;;;;;3.90;3.55;;;;;;;;;;5093112;28;20227;-74
2023/06/09 09:00:23;;;;;;;4.15;3.67;;;;;;;;;;5085225;28;20204;-72
2023/06/09 09:02:51;;;;;;;4.72;3.80;;;;;;;;;;5072949;28;22498;-74
2023/06/09 09:05:19;;;;;;;3.80;3.50;;;;;;;;;;5088371;28;20307;-75
2023/06/09 09:07:47;;;;;;;3.70;3.40;;;;;;;;;;5081685;28;20613;-73
2023/06/09 09:10:14;;;;;;;5.70;3.20;;;;;;;;;;5083131;27;20200;-75
2023/06/09 09:12:48;;;;;;;3.60;3.30;;;;;;;;;;5083357;28;20964;-78
2023/06/09 09:15:15;;;;;;;4.38;3.33;;;;;;;;;;5083510;28;20293;-78
2023/06/09 09:17:45;;;;;;;5.53;3.10;;;;;;;;;;5075296;28;20228;-76
2023/06/09 09:20:17;;;;;;;3.50;3.20;;;;;;;;;;5062548;28;20635;-78
2023/06/09 09:22:49;;;;;;;3.50;3.20;;;;;;;;;;5075487;28;20257;-78
2023/06/09 09:25:22;;;;;;;3.60;3.30;;;;;;;;;;5087851;28;20705;-79
2023/06/09 09:28:09;;;;;;;3.50;3.20;;;;;;;;;;5084632;28;20617;-77
2023/06/09 09:30:47;;;;;;;3.03;2.83;;;;;;;;;;5083604;28;20228;-75
2023/06/09 09:33:24;;;;;;;3.30;3.00;;;;;;;;;;5086263;28;20204;-79
2023/06/09 09:35:53;;;;;;;3.53;3.15;;;;;;;;;;5088627;28;20220;-78
2023/06/09 09:38:21;;;;;;;3.65;3.10;;;;;;;;;;5069969;28;20546;-78
2023/06/09 09:40:50;;;;;;;3.33;3.08;;;;;;;;;;5084391;28;20205;-76
2023/06/09 09:43:18;;;;;;;3.30;3.10;;;;;;;;;;5082732;28;20291;-78
2023/06/09 09:45:47;;;;;;;3.63;3.33;;;;;;;;;;5090390;28;20221;-77
2023/06/09 09:48:15;;;;;;;3.28;2.83;;;;;;;;;;5086145;28;20209;-74
2023/06/09 09:50:43;;;;;;;3.92;3.20;;;;;;;;;;5069907;28;20209;-74
2023/06/09 09:53:11;;;;;;;4.10;3.72;;;;;;;;;;5060575;28;20208;-74
2023/06/09 09:55:39;;;;;;;3.40;2.97;;;;;;;;;;5083801;28;20235;-74
2023/06/09 09:58:07;;;;;;;2.80;2.60;;;;;;;;;;5089720;28;20309;-73
2023/06/09 10:00:36;;;;;;;3.42;3.10;;;;;;;;;;5092752;28;20204;-74
2023/06/09 10:03:07;;;;;;;3.60;3.30;;;;;;;;;;5078219;28;20274;-75
2023/06/09 10:05:37;;;;;;;3.55;3.25;;;;;;;;;;5058872;28;20300;-74
2023/06/09 10:08:09;;;;;;;3.50;3.20;;;;;;;;;;5091173;28;20623;-73
2023/06/09 10:10:38;;;;;;;3.35;3.05;;;;;;;;;;5093096;28;20207;-76
2023/06/09 10:13:06;;;;;;;3.55;3.25;;;;;;;;;;5094537;28;20231;-74
2023/06/09 10:15:33;;;;;;;3.53;3.03;;;;;;;;;;5077917;28;20220;-74
2023/06/09 10:18:02;;;;;;;3.25;2.95;;;;;;;;;;5079455;28;20223;-74
2023/06/09 10:20:30;;;;;;;3.38;3.08;;;;;;;;;;5064305;28;20204;-73
2023/06/09 10:22:57;;;;;;;3.53;3.25;;;;;;;;;;5076264;28;20793;-76
2023/06/09 10:25:25;;;;;;;3.88;3.58;;;;;;;;;;5071329;28;20815;-73
2023/06/09 10:27:52;;;;;;;4.05;3.63;;;;;;;;;;5082313;28;20204;-75
2023/06/09 10:30:21;;;;;;;3.58;3.25;;;;;;;;;;5080731;28;20716;-72
2023/06/09 10:32:54;;;;;;;3.78;3.30;;;;;;;;;;5069738;28;20598;-74
2023/06/09 10:35:24;;;;;;;3.85;3.60;;;;;;;;;;5081127;28;20246;-75
2023/06/09 10:37:53;;;;;;;3.55;3.22;;;;;;;;;;5061685;28;20220;-73
2023/06/09 10:40:25;;;;;;;4.10;3.20;;;;;;;;;;5083070;28;20758;-76
2023/06/09 10:42:52;;;;;;;3.22;3.03;;;;;;;;;;5091077;28;20200;-74
2023/06/09 10:45:20;;;;;;;3.60;3.30;;;;;;;;;;5083811;28;20295;-76
2023/06/09 10:47:48;;;;;;;4.22;3.33;;;;;;;;;;5075353;28;20243;-76
2023/06/09 10:50:21;;;;;;;3.45;2.75;;;;;;;;;;5094186;28;20200;-75
2023/06/09 10:52:53;;;;;;;3.50;3.20;;;;;;;;;;5090288;28;20193;-75
2023/06/09 10:55:22;;;;;;;3.50;3.20;;;;;;;;;;5086644;28;20236;-76
2023/06/09 10:57:50;;;;;;;3.50;3.20;;;;;;;;;;5074286;28;20212;-73
2023/06/09 11:00:17;;;;;;;3.67;3.38;;;;;;;;;;5088976;28;20719;-75
2023/06/09 11:02:46;;;;;;;3.53;3.22;;;;;;;;;;5090956;28;20196;-74
2023/06/09 11:05:14;;;;;;;3.78;3.47;;;;;;;;;;5070422;28;20248;-75
2023/06/09 11:07:49;;;;;;;3.30;3.05;;;;;;;;;;5091791;28;20212;-75
2023/06/09 11:10:20;;;;;;;3.25;2.85;;;;;;;;;;5072886;28;20253;-75
2023/06/09 11:12:50;;;;;;;3.33;3.10;;;;;;;;;;5093771;28;20831;-74
2023/06/09 11:15:17;;;;;;;3.17;2.97;;;;;;;;;;5090422;28;20227;-75
2023/06/09 11:17:49;;;;;;;3.60;3.10;;;;;;;;;;5088348;28;20207;-73
2023/06/09 11:20:18;;;;;;;3.40;3.15;;;;;;;;;;5074781;28;20203;-74
2023/06/09 11:22:52;;;;;;;3.28;2.97;;;;;;;;;;5091181;28;20206;-77
2023/06/09 11:25:19;;;;;;;3.70;3.40;;;;;;;;;;5094957;28;20648;-74
2023/06/09 11:28:07;;;;;;;3.67;3.35;;;;;;;;;;5086208;28;20208;-73
2023/06/09 11:30:34;;;;;;;3.40;3.10;;;;;;;;;;5087945;28;20697;-76
2023/06/09 11:33:05;;;;;;;4.38;3.67;;;;;;;;;;5101057;28;20232;-73
2023/06/09 11:35:39;;;;;;;3.28;3.00;;;;;;;;;;5088449;28;20226;-74
2023/06/09 11:38:07;;;;;;;4.00;3.10;;;;;;;;;;5087686;28;20428;-73
2023/06/09 11:40:35;;;;;;;3.65;3.35;;;;;;;;;;5069730;28;20287;-74
2023/06/09 11:43:09;;;;;;;3.20;2.90;;;;;;;;;;5082285;28;20200;-73
2023/06/09 11:45:37;;;;;;;3.67;3.38;;;;;;;;;;5087465;28;20230;-75
2023/06/09 11:48:08;;;;;;;3.35;3.05;;;;;;;;;;5072886;28;20217;-74
2023/06/09 11:50:36;;;;;;;3.58;3.05;;;;;;;;;;5078187;28;20478;-74
2023/06/09 11:53:05;;;;;;;3.22;2.95;;;;;;;;;;5088180;28;20205;-72
2023/06/09 11:55:32;;;;;;;3.42;3.13;;;;;;;;;;5089034;28;20675;-74
2023/06/09 11:58:01;;;;;;;5.38;3.17;;;;;;;;;;5089153;28;20193;-74
2023/06/09 12:00:29;;;;;;;4.15;3.20;;;;;;;;;;5090581;28;20200;-73
2023/06/09 12:02:57;;;;;;;3.40;3.10;;;;;;;;;;5088840;28;20197;-74
2023/06/09 12:05:28;;;;;;;3.35;3.10;;;;;;;;;;5070663;28;20219;-74
2023/06/09 12:07:56;;;;;;;4.70;3.20;;;;;;;;;;5095201;28;20288;-75
2023/06/09 12:10:26;;;;;;;3.33;3.05;;;;;;;;;;5066477;28;20573;-76
2023/06/09 12:12:57;;;;;;;3.90;3.30;;;;;;;;;;5094265;28;20277;-76
2023/06/09 12:15:26;;;;;;;3.72;3.42;;;;;;;;;;5088615;28;20227;-77
2023/06/09 12:17:56;;;;;;;3.38;3.08;;;;;;;;;;5090201;28;20197;-75
2023/06/09 12:20:24;;;;;;;4.28;3.90;;;;;;;;;;5095232;28;20577;-76
2023/06/09 12:22:53;;;;;;;3.75;3.45;;;;;;;;;;5089965;28;20208;-75
2023/06/09 12:25:26;;;;;;;3.67;3.20;;;;;;;;;;5093115;28;20268;-76
2023/06/09 12:27:55;;;;;;;4.05;3.05;;;;;;;;;;5074321;28;20283;-75
2023/06/09 12:30:39;;;;;;;5.97;3.17;;;;;;;;;;5100828;28;20565;-76
2023/06/09 12:33:09;;;;;;;3.72;3.42;;;;;;;;;;5100298;28;20241;-77
2023/06/09 12:35:41;;;;;;;3.30;3.10;;;;;;;;;;5087028;28;20694;-76
2023/06/09 12:38:22;;;;;;;4.00;3.42;;;;;;;;;;5087576;28;20231;-75
2023/06/09 12:40:51;;;;;;;3.53;3.30;;;;;;;;;;5082740;28;20876;-75
2023/06/09 12:43:19;;;;;;;3.72;3.33;;;;;;;;;;5092299;28;20200;-76
2023/06/09 12:45:47;;;;;;;3.65;3.35;;;;;;;;;;5091328;28;20239;-76
2023/06/09 12:48:15;;;;;;;3.58;3.28;;;;;;;;;;5094529;27;20204;-75
2023/06/09 12:50:43;;;;;;;4.00;3.60;;;;;;;;;;5096662;28;21443;-76
2023/06/09 12:53:11;;;;;;;3.22;3.00;;;;;;;;;;5074204;28;20200;-76
2023/06/09 12:55:39;;;;;;;3.95;3.25;;;;;;;;;;5076624;28;20227;-75
2023/06/09 12:58:08;;;;;;;3.75;3.42;;;;;;;;;;5077200;28;20508;-75
2023/06/09 13:00:36;;;;;;;3.03;2.83;;;;;;;;;;5075485;28;20196;-78
2023/06/09 13:03:07;;;;;;;3.63;3.20;;;;;;;;;;5097038;28;21585;-76
2023/06/09 13:05:35;;;;;;;3.65;2.97;;;;;;;;;;5078916;28;20318;-73
2023/06/09 13:08:04;;;;;;;2.95;2.75;;;;;;;;;;5091069;28;20685;-75
2023/06/09 13:10:31;;;;;;;3.40;3.10;;;;;;;;;;5073345;28;20244;-77
2023/06/09 13:12:59;;;;;;;3.22;2.97;;;;;;;;;;5089544;28;20196;-76
2023/06/09 13:15:26;;;;;;;3.50;3.20;;;;;;;;;;5084583;28;20953;-76
2023/06/09 13:17:54;;;;;;;3.20;2.90;;;;;;;;;;5087985;28;20239;-76
2023/06/09 13:20:22;;;;;;;3.78;2.92;;;;;;;;;;5078640;28;20229;-77
2023/06/09 13:22:50;;;;;;;3.30;3.10;;;;;;;;;;5074127;28;20200;-77
2023/06/09 13:25:17;;;;;;;3.45;3.00;;;;;;;;;;5058066;28;20228;-76
2023/06/09 13:27:44;;;;;;;3.60;3.33;;;;;;;;;;5081513;28;20542;-74
2023/06/09 13:30:12;;;;;;;3.30;3.10;;;;;;;;;;5066259;28;20344;-74
2023/06/09 13:32:40;;;;;;;3.70;3.40;;;;;;;;;;5066692;28;20797;-75
2023/06/09 13:35:08;;;;;;;3.45;3.25;;;;;;;;;;5079497;28;20225;-75
2023/06/09 13:37:36;;;;;;;3.00;2.67;;;;;;;;;;5056107;28;20216;-75
2023/06/09 13:40:03;;;;;;;3.22;3.03;;;;;;;;;;5064948;28;20234;-73
2023/06/09 13:42:30;;;;;;;3.30;3.10;;;;;;;;;;5090712;28;20196;-74
2023/06/09 13:44:58;;;;;;;3.13;2.88;;;;;;;;;;5077506;28;20715;-74
2023/06/09 13:47:25;;;;;;;3.08;2.88;;;;;;;;;;5092632;28;20558;-74
2023/06/09 13:49:53;;;;;;;3.15;2.78;;;;;;;;;;5069478;28;20204;-75
2023/06/09 13:52:21;;;;;;;3.05;2.85;;;;;;;;;;5094495;28;20219;-75
2023/06/09 13:54:49;;;;;;;3.50;3.20;;;;;;;;;;5087127;28;20694;-74
2023/06/09 13:57:16;;;;;;;5.40;3.20;;;;;;;;;;5077246;28;20200;-73
2023/06/09 13:59:43;;;;;;;3.55;3.22;;;;;;;;;;5094704;28;20221;-75
2023/06/09 14:02:11;;;;;;;3.60;3.25;;;;;;;;;;5094800;28;20200;-74
2023/06/09 14:04:38;;;;;;;3.15;2.90;;;;;;;;;;5090520;28;20994;-75
2023/06/09 14:07:06;;;;;;;4.55;3.25;;;;;;;;;;5100980;28;20552;-75
2023/06/09 14:09:33;;;;;;;3.92;2.90;;;;;;;;;;5098061;28;20662;-75
2023/06/09 14:12:01;;;;;;;3.30;3.00;;;;;;;;;;5097708;28;20669;-73
2023/06/09 14:14:28;;;;;;;3.15;2.95;;;;;;;;;;5087786;28;20212;-76
2023/06/09 14:16:57;;;;;;;3.72;3.22;;;;;;;;;;5098520;28;20204;-75
2023/06/09 14:19:24;;;;;;;3.28;3.05;;;;;;;;;;5084172;28;20235;-73
2023/06/09 14:21:52;;;;;;;3.60;3.15;;;;;;;;;;5098221;28;20250;-77
2023/06/09 14:24:19;;;;;;;3.47;3.28;;;;;;;;;;5088428;28;20250;-74
2023/06/09 14:26:48;;;;;;;3.00;2.80;;;;;;;;;;5095896;28;20205;-75
2023/06/09 14:29:15;;;;;;;4.13;3.25;;;;;;;;;;5091832;28;20291;-74
2023/06/09 14:31:42;;;;;;;3.60;3.30;;;;;;;;;;5062462;28;20236;-75
2023/06/09 14:34:09;;;;;;;4.00;3.17;;;;;;;;;;5074321;28;20218;-74
2023/06/09 14:36:37;;;;;;;3.58;3.28;;;;;;;;;;5064373;28;20212;-75
2023/06/09 14:39:04;;;;;;;3.28;2.97;;;;;;;;;;5070811;28;20231;-75
2023/06/09 14:41:32;;;;;;;3.72;3.30;;;;;;;;;;5075541;28;20204;-74
2023/06/09 14:43:59;;;;;;;3.20;2.90;;;;;;;;;;5061852;28;20201;-77
2023/06/09 14:46:26;;;;;;;3.45;3.13;;;;;;;;;;5065564;28;20892;-74
2023/06/09 14:48:54;;;;;;;3.45;2.80;;;;;;;;;;5031163;28;20204;-74
2023/06/09 14:51:21;;;;;;;3.20;2.80;;;;;;;;;;5079509;27;20204;-75